Aviation Digital Data Service (ADDS)

Output produced by METARs form (2325 UTC 23 October 2019)
found at http://www.aviationweather.gov/metar/data/
 
Forecast for: ZPPP (KUNMING/WUJIABA , CN)
Text: TAF ZPPP 231914Z 2400/2424 04004MPS 3100 BR SCT003 SCT020 BKN033 TX22/2408Z TN12/2423Z
Forecast period: 0000 UTC 24 October 2019 to 0000 UTC 25 October 2019
Forecast type: FROM: standard forecast or significant change
Winds: from the NE (40 degrees) at 9 MPH (8 knots; 4.1 m/s)
Visibility: 1.93 miles (3.11 km)
Ceiling: 3300 feet AGL
Clouds: scattered clouds at 300 feet AGL
scattered clouds at 2000 feet AGL
broken clouds at 3300 feet AGL
Weather: BR  (mist)
Text: BECMG 2400/2401 22005MPS
Forecast period: 0000 UTC 24 October 2019 to 0000 UTC 25 October 2019
Forecast type: BECOMING: Conditions expected to become as follows by 0100 UTC 24 October 2019
Winds: from the SW (220 degrees) at 12 MPH (10 knots; 5.1 m/s)
Visibility: 1.93 miles (3.11 km)
Ceiling: 3300 feet AGL
Clouds: scattered clouds at 300 feet AGL
scattered clouds at 2000 feet AGL
broken clouds at 3300 feet AGL
Weather: BR  (mist)